createdAt,value
2022-11-06T00:00:47.966Z,13.40
2022-11-06T00:03:16.473Z,13.40
2022-11-06T00:06:02.200Z,13.40
2022-11-06T00:08:34.529Z,13.40
2022-11-06T00:11:09.009Z,13.40
2022-11-06T00:13:38.044Z,13.40
2022-11-06T00:16:07.471Z,13.40
2022-11-06T00:18:36.800Z,13.40
2022-11-06T00:21:08.524Z,13.40
2022-11-06T00:23:38.523Z,13.40
2022-11-06T00:26:08.248Z,13.50
2022-11-06T00:28:36.968Z,13.50
2022-11-06T00:31:06.613Z,13.40
2022-11-06T00:33:36.063Z,13.50
2022-11-06T00:36:05.686Z,13.40
2022-11-06T00:38:34.649Z,13.50
2022-11-06T00:41:06.192Z,13.40
2022-11-06T00:43:35.850Z,13.50
2022-11-06T00:46:04.834Z,13.50
2022-11-06T00:48:33.338Z,13.40
2022-11-06T00:51:04.034Z,13.40
2022-11-06T00:53:32.406Z,13.40
2022-11-06T00:56:07.298Z,13.40
2022-11-06T00:58:36.278Z,13.40
2022-11-06T01:01:09.847Z,13.40
2022-11-06T01:03:39.660Z,13.40
2022-11-06T01:06:10.272Z,13.40
2022-11-06T01:08:39.423Z,13.40
2022-11-06T01:11:11.708Z,13.40
2022-11-06T01:13:40.301Z,13.30
2022-11-06T01:16:10.333Z,13.30
2022-11-06T01:18:39.785Z,13.40
2022-11-06T01:21:09.775Z,13.30
2022-11-06T01:23:38.268Z,13.30
2022-11-06T01:26:10.966Z,13.30
2022-11-06T01:28:39.809Z,13.30
2022-11-06T01:31:10.280Z,13.40
2022-11-06T01:33:39.040Z,13.30
2022-11-06T01:36:10.152Z,13.30
2022-11-06T01:38:41.483Z,13.30
2022-11-06T01:41:14.451Z,13.30
2022-11-06T01:43:48.063Z,13.30
2022-11-06T01:46:18.155Z,13.30
2022-11-06T01:48:51.403Z,13.30
2022-11-06T01:51:21.609Z,13.30
2022-11-06T01:53:50.462Z,13.30
2022-11-06T01:56:21.862Z,13.30
2022-11-06T01:58:53.381Z,13.20
2022-11-06T02:01:22.135Z,13.30
2022-11-06T02:03:56.500Z,13.20
2022-11-06T02:06:25.536Z,13.20
2022-11-06T02:08:53.912Z,13.20
2022-11-06T02:11:24.075Z,13.20
2022-11-06T02:14:01.820Z,13.20
2022-11-06T02:16:39.936Z,13.10
2022-11-06T02:19:31.029Z,13.10
2022-11-06T02:22:21.939Z,13.10
2022-11-06T02:25:05.036Z,13.10
2022-11-06T02:27:36.332Z,13.10
2022-11-06T02:30:08.140Z,13.10
2022-11-06T02:32:41.306Z,13.10
2022-11-06T02:35:18.984Z,13.10
2022-11-06T02:37:50.433Z,13.10
2022-11-06T02:40:20.564Z,13.10
2022-11-06T02:42:54.613Z,13.10
2022-11-06T02:45:26.262Z,13.10
2022-11-06T02:47:57.486Z,13.10
2022-11-06T02:50:31.756Z,13.10
2022-11-06T02:53:04.043Z,13.10
2022-11-06T02:55:38.665Z,13.10
2022-11-06T02:58:12.823Z,13.10
2022-11-06T03:00:43.377Z,13.10
2022-11-06T03:03:18.939Z,13.10
2022-11-06T03:05:53.145Z,13.10
2022-11-06T03:08:27.902Z,13.10
2022-11-06T03:11:07.633Z,13.10
2022-11-06T03:13:45.655Z,13.10
2022-11-06T03:16:24.564Z,13.10
2022-11-06T03:19:02.725Z,13.00
2022-11-06T03:21:42.494Z,13.10
2022-11-06T03:24:18.082Z,13.10
2022-11-06T03:26:51.407Z,13.00
2022-11-06T03:29:24.028Z,13.00
2022-11-06T03:31:55.866Z,13.00
2022-11-06T03:34:30.900Z,13.00
2022-11-06T03:37:05.036Z,13.00
2022-11-06T03:39:38.408Z,13.00
2022-11-06T03:42:10.291Z,13.00
2022-11-06T03:44:42.544Z,13.00
2022-11-06T03:47:15.882Z,13.00
2022-11-06T03:49:50.694Z,13.00
2022-11-06T03:52:30.487Z,13.10
2022-11-06T03:55:02.715Z,13.10
2022-11-06T03:57:38.291Z,13.10
2022-11-06T04:00:10.405Z,13.10
2022-11-06T04:02:47.099Z,13.10
2022-11-06T04:05:19.884Z,13.10
2022-11-06T04:08:05.488Z,13.10
2022-11-06T04:10:52.194Z,13.10
2022-11-06T04:13:40.715Z,13.10
2022-11-06T04:16:12.600Z,13.10
2022-11-06T04:18:41.022Z,13.10
2022-11-06T04:21:23.130Z,13.10
2022-11-06T04:24:29.083Z,13.20
2022-11-06T04:27:14.576Z,13.20
2022-11-06T04:29:53.258Z,13.20
2022-11-06T04:32:33.889Z,13.20
2022-11-06T04:35:07.370Z,13.20
2022-11-06T04:37:44.424Z,13.20
2022-11-06T04:40:18.701Z,13.20
2022-11-06T04:42:55.986Z,13.20
2022-11-06T04:45:27.753Z,13.20
2022-11-06T04:47:59.473Z,13.20
2022-11-06T04:50:30.283Z,13.20
2022-11-06T04:53:00.761Z,13.20
2022-11-06T04:55:31.055Z,13.20
2022-11-06T04:57:59.550Z,13.30
2022-11-06T05:00:28.073Z,13.30
2022-11-06T05:02:58.425Z,13.30
2022-11-06T05:05:27.351Z,13.30
2022-11-06T05:08:09.700Z,13.30
2022-11-06T05:10:38.275Z,13.30
2022-11-06T05:13:06.811Z,13.30
2022-11-06T05:15:35.201Z,13.30
2022-11-06T05:18:06.317Z,13.30
2022-11-06T05:20:35.215Z,13.30
2022-11-06T05:23:02.599Z,13.40
2022-11-06T05:25:33.090Z,13.40
2022-11-06T05:28:02.428Z,13.40
2022-11-06T05:30:30.901Z,13.40
2022-11-06T05:32:59.267Z,13.40
2022-11-06T05:35:29.088Z,13.40
2022-11-06T05:38:01.038Z,13.40
2022-11-06T05:40:49.785Z,13.40
2022-11-06T05:43:18.194Z,13.40
2022-11-06T05:45:46.678Z,13.40
2022-11-06T05:48:15.455Z,13.40
2022-11-06T05:50:45.665Z,13.40
2022-11-06T05:53:16.923Z,13.40
2022-11-06T05:55:47.825Z,13.40
2022-11-06T05:58:16.490Z,13.40
2022-11-06T06:00:45.092Z,13.40
2022-11-06T06:03:13.578Z,13.30
2022-11-06T06:05:42.163Z,13.30
2022-11-06T06:08:12.293Z,13.40
2022-11-06T06:10:42.569Z,13.40
2022-11-06T06:13:11.183Z,13.40
2022-11-06T06:15:41.685Z,13.40
2022-11-06T06:18:11.643Z,13.40
2022-11-06T06:20:40.651Z,13.40
2022-11-06T06:23:09.726Z,13.40
2022-11-06T06:25:39.656Z,13.40
2022-11-06T06:28:08.643Z,13.30
2022-11-06T06:30:36.970Z,13.40
2022-11-06T06:33:06.554Z,13.40
2022-11-06T06:35:35.175Z,13.30
2022-11-06T06:38:03.509Z,13.30
2022-11-06T06:40:48.050Z,13.40
2022-11-06T06:43:16.431Z,13.40
2022-11-06T22:30:36.191Z,12.40
2022-11-06T22:33:04.739Z,12.50
2022-11-06T22:35:33.107Z,12.50
2022-11-06T22:38:03.288Z,12.50
2022-11-06T22:40:31.838Z,12.50
2022-11-06T22:43:00.223Z,12.50
2022-11-06T22:45:29.373Z,12.50
2022-11-06T22:47:59.713Z,12.50
2022-11-06T22:50:28.799Z,12.60
2022-11-06T22:52:57.748Z,12.60
2022-11-06T22:55:27.323Z,12.60
2022-11-06T22:57:57.496Z,12.60
2022-11-06T23:00:27.420Z,12.60
2022-11-06T23:02:56.511Z,12.60
2022-11-06T23:05:26.954Z,12.60
2022-11-06T23:07:56.032Z,12.60
2022-11-06T23:10:30.390Z,12.60
2022-11-06T23:12:59.353Z,12.50
2022-11-06T23:15:28.237Z,12.50
2022-11-06T23:17:57.126Z,12.50
2022-11-06T23:20:29.923Z,12.50
2022-11-06T23:23:00.682Z,12.50
2022-11-06T23:28:13.789Z,12.60
2022-11-06T23:30:42.684Z,12.60
2022-11-06T23:33:12.345Z,12.60
2022-11-06T23:35:43.011Z,12.60
2022-11-06T23:38:11.641Z,12.60
2022-11-06T23:40:40.560Z,12.60
2022-11-06T23:43:09.209Z,12.60
2022-11-06T23:45:48.574Z,12.60
2022-11-06T23:48:18.410Z,12.60
2022-11-06T23:50:48.517Z,12.60
2022-11-06T23:53:18.075Z,12.60
2022-11-06T23:55:46.998Z,12.60
2022-11-06T23:58:15.813Z,12.60
